sensor_id;sensor_type;location;lat;lon;timestamp;pressure;altitude;pressure_sealevel;temperature;humidity
15880;BME280;61999;51.514;14.614;2023-02-12T00:01:19;101682.69;;;0.21;77.93
15880;BME280;61999;51.514;14.614;2023-02-12T00:03:47;101677.88;;;-0.20;78.73
15880;BME280;61999;51.514;14.614;2023-02-12T00:06:15;101685.75;;;-0.33;81.42
15880;BME280;61999;51.514;14.614;2023-02-12T00:08:44;101704.75;;;-0.35;81.87
15880;BME280;61999;51.514;14.614;2023-02-12T00:11:14;101697.47;;;0.11;79.40
15880;BME280;61999;51.514;14.614;2023-02-12T00:13:43;101688.34;;;-0.33;80.41
15880;BME280;61999;51.514;14.614;2023-02-12T00:16:14;101694.25;;;-0.15;80.03
15880;BME280;61999;51.514;14.614;2023-02-12T00:18:44;101696.28;;;0.46;78.21
15880;BME280;61999;51.514;14.614;2023-02-12T00:21:13;101698.88;;;-0.62;80.08
15880;BME280;61999;51.514;14.614;2023-02-12T00:23:43;101699.13;;;0.22;79.57
15880;BME280;61999;51.514;14.614;2023-02-12T00:26:14;101691.38;;;0.17;78.11
15880;BME280;61999;51.514;14.614;2023-02-12T00:28:43;101685.41;;;0.06;77.52
15880;BME280;61999;51.514;14.614;2023-02-12T00:31:16;101691.56;;;-0.06;79.03
15880;BME280;61999;51.514;14.614;2023-02-12T00:33:46;101688.66;;;0.34;77.66
15880;BME280;61999;51.514;14.614;2023-02-12T00:36:18;101699.63;;;0.57;75.90
15880;BME280;61999;51.514;14.614;2023-02-12T00:38:47;101706.94;;;0.15;76.77
15880;BME280;61999;51.514;14.614;2023-02-12T00:41:15;101707.00;;;0.09;77.61
15880;BME280;61999;51.514;14.614;2023-02-12T00:43:43;101710.88;;;0.59;76.09
15880;BME280;61999;51.514;14.614;2023-02-12T00:46:11;101720.50;;;0.47;76.70
15880;BME280;61999;51.514;14.614;2023-02-12T00:48:39;101723.19;;;0.37;76.47
15880;BME280;61999;51.514;14.614;2023-02-12T00:51:09;101713.78;;;0.21;76.24
15880;BME280;61999;51.514;14.614;2023-02-12T00:53:37;101712.03;;;0.31;78.30
15880;BME280;61999;51.514;14.614;2023-02-12T00:56:06;101711.97;;;0.37;77.25
15880;BME280;61999;51.514;14.614;2023-02-12T00:58:34;101715.28;;;0.51;76.16
15880;BME280;61999;51.514;14.614;2023-02-12T01:01:03;101714.63;;;0.31;76.38
15880;BME280;61999;51.514;14.614;2023-02-12T01:03:31;101720.19;;;0.77;75.76
15880;BME280;61999;51.514;14.614;2023-02-12T01:05:59;101717.41;;;0.03;76.76
15880;BME280;61999;51.514;14.614;2023-02-12T01:08:28;101726.03;;;0.08;78.30
15880;BME280;61999;51.514;14.614;2023-02-12T01:11:00;101726.59;;;0.41;76.75
15880;BME280;61999;51.514;14.614;2023-02-12T01:13:30;101723.81;;;0.63;75.81
15880;BME280;61999;51.514;14.614;2023-02-12T01:16:07;101734.13;;;0.69;74.28
15880;BME280;61999;51.514;14.614;2023-02-12T01:18:37;101735.50;;;0.14;76.03
15880;BME280;61999;51.514;14.614;2023-02-12T01:21:10;101736.41;;;0.95;75.20
15880;BME280;61999;51.514;14.614;2023-02-12T01:23:41;101741.56;;;0.98;73.82
15880;BME280;61999;51.514;14.614;2023-02-12T01:26:11;101746.25;;;0.68;74.95
15880;BME280;61999;51.514;14.614;2023-02-12T01:28:41;101741.13;;;0.60;74.13
15880;BME280;61999;51.514;14.614;2023-02-12T01:31:13;101736.19;;;0.36;75.04
15880;BME280;61999;51.514;14.614;2023-02-12T01:33:42;101737.06;;;0.35;77.12
15880;BME280;61999;51.514;14.614;2023-02-12T01:36:11;101742.53;;;0.89;74.79
15880;BME280;61999;51.514;14.614;2023-02-12T01:38:40;101732.72;;;1.14;73.58
15880;BME280;61999;51.514;14.614;2023-02-12T01:41:12;101740.53;;;1.13;72.93
15880;BME280;61999;51.514;14.614;2023-02-12T01:43:40;101742.34;;;1.08;72.94
15880;BME280;61999;51.514;14.614;2023-02-12T01:46:11;101740.03;;;0.81;73.10
15880;BME280;61999;51.514;14.614;2023-02-12T01:48:44;101744.81;;;0.38;76.50
15880;BME280;61999;51.514;14.614;2023-02-12T01:51:18;101747.34;;;0.46;76.75
15880;BME280;61999;51.514;14.614;2023-02-12T01:53:53;101743.75;;;0.57;76.00
15880;BME280;61999;51.514;14.614;2023-02-12T01:56:24;101744.16;;;0.10;76.79
15880;BME280;61999;51.514;14.614;2023-02-12T01:58:54;101745.28;;;-0.23;77.97
15880;BME280;61999;51.514;14.614;2023-02-12T02:01:27;101745.41;;;-0.45;79.83
15880;BME280;61999;51.514;14.614;2023-02-12T02:04:00;101748.59;;;-0.01;79.02
15880;BME280;61999;51.514;14.614;2023-02-12T02:06:34;101751.47;;;0.64;76.70
15880;BME280;61999;51.514;14.614;2023-02-12T02:09:04;101752.97;;;0.88;75.12
15880;BME280;61999;51.514;14.614;2023-02-12T02:11:32;101755.44;;;0.95;74.21
15880;BME280;61999;51.514;14.614;2023-02-12T02:14:18;101755.25;;;1.12;73.33
15880;BME280;61999;51.514;14.614;2023-02-12T02:17:34;101754.66;;;0.90;72.93
15880;BME280;61999;51.514;14.614;2023-02-12T02:20:48;101751.81;;;0.24;75.15
15880;BME280;61999;51.514;14.614;2023-02-12T02:23:51;101750.97;;;0.23;76.58
15880;BME280;61999;51.514;14.614;2023-02-12T02:27:01;101756.97;;;0.30;76.69
15880;BME280;61999;51.514;14.614;2023-02-12T02:32:34;101753.84;;;0.83;74.01
15880;BME280;61999;51.514;14.614;2023-02-12T02:35:13;101760.28;;;0.50;75.39
15880;BME280;61999;51.514;14.614;2023-02-12T02:37:52;101756.38;;;0.91;74.42
15880;BME280;61999;51.514;14.614;2023-02-12T02:40:32;101765.50;;;1.23;73.35
15880;BME280;61999;51.514;14.614;2023-02-12T02:43:08;101773.00;;;1.47;71.97
15880;BME280;61999;51.514;14.614;2023-02-12T02:45:44;101765.78;;;1.66;71.20
15880;BME280;61999;51.514;14.614;2023-02-12T02:48:20;101784.09;;;1.59;70.52
15880;BME280;61999;51.514;14.614;2023-02-12T02:50:55;101774.63;;;1.55;70.89
15880;BME280;61999;51.514;14.614;2023-02-12T02:53:29;101771.25;;;1.46;71.34
15880;BME280;61999;51.514;14.614;2023-02-12T02:56:01;101775.50;;;1.54;70.87
15880;BME280;61999;51.514;14.614;2023-02-12T02:58:36;101777.38;;;1.44;71.07
15880;BME280;61999;51.514;14.614;2023-02-12T03:01:11;101775.69;;;1.38;71.31
15880;BME280;61999;51.514;14.614;2023-02-12T03:03:49;101774.34;;;1.73;69.96
15880;BME280;61999;51.514;14.614;2023-02-12T03:06:27;101790.94;;;1.64;69.55
15880;BME280;61999;51.514;14.614;2023-02-12T03:09:01;101787.22;;;1.85;69.79
15880;BME280;61999;51.514;14.614;2023-02-12T03:11:33;101780.63;;;1.58;69.31
15880;BME280;61999;51.514;14.614;2023-02-12T03:14:07;101795.28;;;1.64;69.67
15880;BME280;61999;51.514;14.614;2023-02-12T03:16:45;101795.47;;;1.52;70.56
15880;BME280;61999;51.514;14.614;2023-02-12T03:19:19;101795.09;;;1.79;69.46
15880;BME280;61999;51.514;14.614;2023-02-12T03:21:53;101806.13;;;1.97;69.17
15880;BME280;61999;51.514;14.614;2023-02-12T03:24:31;101800.97;;;1.93;68.39
15880;BME280;61999;51.514;14.614;2023-02-12T03:27:07;101809.81;;;1.79;68.93
15880;BME280;61999;51.514;14.614;2023-02-12T03:29:38;101808.78;;;1.93;68.60
15880;BME280;61999;51.514;14.614;2023-02-12T03:32:26;101812.53;;;1.71;68.55
15880;BME280;61999;51.514;14.614;2023-02-12T03:35:09;101821.03;;;1.85;68.51
15880;BME280;61999;51.514;14.614;2023-02-12T03:37:50;101817.69;;;1.74;68.62
15880;BME280;61999;51.514;14.614;2023-02-12T03:40:31;101821.03;;;1.85;68.43
15880;BME280;61999;51.514;14.614;2023-02-12T03:43:06;101830.53;;;1.17;70.10
15880;BME280;61999;51.514;14.614;2023-02-12T03:45:44;101835.88;;;1.04;70.26
15880;BME280;61999;51.514;14.614;2023-02-12T03:48:23;101832.28;;;1.16;71.09
15880;BME280;61999;51.514;14.614;2023-02-12T03:50:57;101830.22;;;1.41;69.99
15880;BME280;61999;51.514;14.614;2023-02-12T03:53:28;101843.13;;;1.50;69.56
15880;BME280;61999;51.514;14.614;2023-02-12T03:56:02;101831.94;;;1.45;69.09
15880;BME280;61999;51.514;14.614;2023-02-12T03:58:34;101843.78;;;1.68;69.23
15880;BME280;61999;51.514;14.614;2023-02-12T04:01:03;101845.66;;;1.57;68.93
15880;BME280;61999;51.514;14.614;2023-02-12T04:03:31;101853.97;;;1.83;68.60
15880;BME280;61999;51.514;14.614;2023-02-12T04:06:01;101844.84;;;1.50;69.51
15880;BME280;61999;51.514;14.614;2023-02-12T04:08:30;101854.03;;;1.77;68.79
15880;BME280;61999;51.514;14.614;2023-02-12T04:11:12;101861.03;;;1.72;68.02
15880;BME280;61999;51.514;14.614;2023-02-12T04:14:02;101859.28;;;1.74;68.17
15880;BME280;61999;51.514;14.614;2023-02-12T04:16:43;101865.38;;;1.71;68.12
15880;BME280;61999;51.514;14.614;2023-02-12T04:19:19;101870.34;;;1.91;68.03
15880;BME280;61999;51.514;14.614;2023-02-12T04:22:12;101872.81;;;2.01;67.51
15880;BME280;61999;51.514;14.614;2023-02-12T04:24:51;101874.50;;;2.05;67.26
15880;BME280;61999;51.514;14.614;2023-02-12T04:27:29;101875.28;;;2.11;67.37
15880;BME280;61999;51.514;14.614;2023-02-12T04:30:10;101874.53;;;2.02;67.27
15880;BME280;61999;51.514;14.614;2023-02-12T04:32:47;101875.66;;;1.85;67.51
15880;BME280;61999;51.514;14.614;2023-02-12T04:35:23;101875.91;;;1.61;68.12
15880;BME280;61999;51.514;14.614;2023-02-12T04:37:58;101879.31;;;1.64;67.74
15880;BME280;61999;51.514;14.614;2023-02-12T04:40:29;101885.34;;;1.71;67.83
15880;BME280;61999;51.514;14.614;2023-02-12T04:42:57;101873.00;;;1.88;67.56
15880;BME280;61999;51.514;14.614;2023-02-12T04:45:30;101896.28;;;1.99;67.42
15880;BME280;61999;51.514;14.614;2023-02-12T04:47:59;101892.16;;;1.78;67.27
15880;BME280;61999;51.514;14.614;2023-02-12T04:50:39;101891.97;;;1.97;67.29
15880;BME280;61999;51.514;14.614;2023-02-12T04:53:09;101893.72;;;1.94;67.07
15880;BME280;61999;51.514;14.614;2023-02-12T04:55:37;101892.47;;;1.54;68.05
15880;BME280;61999;51.514;14.614;2023-02-12T04:58:06;101895.78;;;1.68;67.97
15880;BME280;61999;51.514;14.614;2023-02-12T05:00:34;101891.47;;;1.65;67.57
15880;BME280;61999;51.514;14.614;2023-02-12T05:03:03;101889.56;;;1.80;67.54
15880;BME280;61999;51.514;14.614;2023-02-12T05:05:31;101892.56;;;1.47;67.97
15880;BME280;61999;51.514;14.614;2023-02-12T05:07:59;101902.75;;;1.63;67.96
15880;BME280;61999;51.514;14.614;2023-02-12T05:10:28;101903.84;;;1.43;68.55
15880;BME280;61999;51.514;14.614;2023-02-12T05:12:56;101899.66;;;1.30;68.38
15880;BME280;61999;51.514;14.614;2023-02-12T05:15:24;101895.97;;;1.49;68.54
15880;BME280;61999;51.514;14.614;2023-02-12T05:17:52;101891.59;;;1.56;67.78
15880;BME280;61999;51.514;14.614;2023-02-12T05:20:20;101900.94;;;1.71;67.39
15880;BME280;61999;51.514;14.614;2023-02-12T05:22:51;101901.13;;;1.53;67.42
15880;BME280;61999;51.514;14.614;2023-02-12T05:25:19;101896.81;;;1.50;67.89
15880;BME280;61999;51.514;14.614;2023-02-12T05:27:49;101901.78;;;1.71;67.47
15880;BME280;61999;51.514;14.614;2023-02-12T05:30:17;101907.06;;;1.64;67.40
15880;BME280;61999;51.514;14.614;2023-02-12T05:32:45;101906.16;;;1.68;67.45
15880;BME280;61999;51.514;14.614;2023-02-12T05:35:13;101909.50;;;1.79;67.06
15880;BME280;61999;51.514;14.614;2023-02-12T05:37:41;101909.41;;;1.88;67.01
15880;BME280;61999;51.514;14.614;2023-02-12T05:40:10;101913.13;;;1.66;66.78
15880;BME280;61999;51.514;14.614;2023-02-12T05:42:38;101913.94;;;1.69;67.03
15880;BME280;61999;51.514;14.614;2023-02-12T05:45:08;101913.91;;;1.72;66.84
15880;BME280;61999;51.514;14.614;2023-02-12T05:47:36;101919.94;;;1.76;67.19
15880;BME280;61999;51.514;14.614;2023-02-12T05:50:06;101916.59;;;1.65;67.10
15880;BME280;61999;51.514;14.614;2023-02-12T05:52:34;101916.09;;;1.32;68.65
15880;BME280;61999;51.514;14.614;2023-02-12T05:55:03;101930.56;;;1.56;68.01
15880;BME280;61999;51.514;14.614;2023-02-12T05:57:31;101935.03;;;1.45;67.99
15880;BME280;61999;51.514;14.614;2023-02-12T05:59:59;101939.47;;;1.32;68.33
15880;BME280;61999;51.514;14.614;2023-02-12T06:02:28;101943.59;;;1.50;68.37
15880;BME280;61999;51.514;14.614;2023-02-12T06:04:56;101941.78;;;1.60;67.71
15880;BME280;61999;51.514;14.614;2023-02-12T06:07:24;101942.50;;;1.74;67.27
15880;BME280;61999;51.514;14.614;2023-02-12T06:09:52;101944.53;;;1.44;67.85
15880;BME280;61999;51.514;14.614;2023-02-12T06:12:21;101952.84;;;1.77;67.38
15880;BME280;61999;51.514;14.614;2023-02-12T06:14:49;101961.50;;;1.79;67.10
15880;BME280;61999;51.514;14.614;2023-02-12T06:17:17;101962.41;;;1.75;67.06
15880;BME280;61999;51.514;14.614;2023-02-12T06:19:46;101969.19;;;1.91;66.62
15880;BME280;61999;51.514;14.614;2023-02-12T06:22:14;101971.75;;;1.93;66.57
15880;BME280;61999;51.514;14.614;2023-02-12T06:24:42;101969.25;;;1.85;66.24
15880;BME280;61999;51.514;14.614;2023-02-12T06:27:10;101964.88;;;1.87;66.39
15880;BME280;61999;51.514;14.614;2023-02-12T06:29:38;101973.38;;;2.02;66.42
15880;BME280;61999;51.514;14.614;2023-02-12T06:32:06;101977.72;;;2.03;66.15
15880;BME280;61999;51.514;14.614;2023-02-12T06:34:34;101976.94;;;1.94;66.43
15880;BME280;61999;51.514;14.614;2023-02-12T06:37:04;101982.88;;;2.06;65.98
15880;BME280;61999;51.514;14.614;2023-02-12T06:39:31;101987.13;;;2.13;66.07
15880;BME280;61999;51.514;14.614;2023-02-12T06:42:00;101994.88;;;2.19;66.26
15880;BME280;61999;51.514;14.614;2023-02-12T06:44:28;101986.16;;;2.20;65.69
15880;BME280;61999;51.514;14.614;2023-02-12T06:46:56;101996.59;;;2.18;65.60
15880;BME280;61999;51.514;14.614;2023-02-12T06:49:24;101993.97;;;2.20;65.77
15880;BME280;61999;51.514;14.614;2023-02-12T06:51:52;101986.97;;;2.25;65.65
15880;BME280;61999;51.514;14.614;2023-02-12T06:54:21;101999.06;;;2.31;65.59
15880;BME280;61999;51.514;14.614;2023-02-12T06:56:49;102000.75;;;2.33;65.38
15880;BME280;61999;51.514;14.614;2023-02-12T06:59:17;102000.72;;;2.36;65.57
15880;BME280;61999;51.514;14.614;2023-02-12T07:01:45;102006.72;;;2.38;65.48
15880;BME280;61999;51.514;14.614;2023-02-12T07:04:13;102012.78;;;2.40;65.29
15880;BME280;61999;51.514;14.614;2023-02-12T07:06:41;102003.22;;;2.41;65.39
15880;BME280;61999;51.514;14.614;2023-02-12T07:09:09;102011.03;;;2.43;65.42
15880;BME280;61999;51.514;14.614;2023-02-12T07:11:39;102018.00;;;2.42;65.45
15880;BME280;61999;51.514;14.614;2023-02-12T07:14:07;102024.88;;;2.45;65.39
15880;BME280;61999;51.514;14.614;2023-02-12T07:16:39;102026.59;;;2.46;65.30
15880;BME280;61999;51.514;14.614;2023-02-12T07:19:10;102026.56;;;2.49;65.35
15880;BME280;61999;51.514;14.614;2023-02-12T07:21:40;102030.03;;;2.51;65.48
15880;BME280;61999;51.514;14.614;2023-02-12T07:24:10;102038.66;;;2.53;65.35
15880;BME280;61999;51.514;14.614;2023-02-12T07:26:40;102030.78;;;2.56;65.30
15880;BME280;61999;51.514;14.614;2023-02-12T07:29:09;102032.53;;;2.55;65.11
15880;BME280;61999;51.514;14.614;2023-02-12T07:31:39;102036.94;;;2.52;65.07
15880;BME280;61999;51.514;14.614;2023-02-12T07:34:09;102043.75;;;2.59;65.10
15880;BME280;61999;51.514;14.614;2023-02-12T07:36:37;102046.34;;;2.62;65.29
15880;BME280;61999;51.514;14.614;2023-02-12T07:39:05;102043.91;;;2.50;65.06
15880;BME280;61999;51.514;14.614;2023-02-12T07:41:35;102054.41;;;2.44;65.36
15880;BME280;61999;51.514;14.614;2023-02-12T07:44:06;102048.75;;;2.09;65.84
15880;BME280;61999;51.514;14.614;2023-02-12T07:46:39;102058.50;;;1.87;66.73
15880;BME280;61999;51.514;14.614;2023-02-12T07:49:11;102060.22;;;1.91;66.64
15880;BME280;61999;51.514;14.614;2023-02-12T07:51:40;102061.13;;;1.83;67.48
15880;BME280;61999;51.514;14.614;2023-02-12T07:54:09;102059.91;;;2.19;66.22
15880;BME280;61999;51.514;14.614;2023-02-12T07:56:40;102059.22;;;2.03;66.09
15880;BME280;61999;51.514;14.614;2023-02-12T07:59:14;102064.59;;;1.86;66.69
15880;BME280;61999;51.514;14.614;2023-02-12T08:01:45;102066.47;;;1.69;66.89
15880;BME280;61999;51.514;14.614;2023-02-12T08:04:17;102069.03;;;1.72;67.71
15880;BME280;61999;51.514;14.614;2023-02-12T08:06:47;102061.72;;;2.14;66.78
15880;BME280;61999;51.514;14.614;2023-02-12T08:09:18;102071.16;;;2.23;66.18
15880;BME280;61999;51.514;14.614;2023-02-12T08:11:47;102077.44;;;2.02;66.59
15880;BME280;61999;51.514;14.614;2023-02-12T08:14:18;102081.69;;;2.07;66.50
15880;BME280;61999;51.514;14.614;2023-02-12T08:16:48;102085.94;;;2.19;66.28
15880;BME280;61999;51.514;14.614;2023-02-12T08:19:18;102079.84;;;2.18;66.16
15880;BME280;61999;51.514;14.614;2023-02-12T08:21:52;102095.31;;;2.32;66.04
15880;BME280;61999;51.514;14.614;2023-02-12T08:24:21;102104.75;;;2.43;65.98
15880;BME280;61999;51.514;14.614;2023-02-12T08:26:50;102100.66;;;2.20;66.11
15880;BME280;61999;51.514;14.614;2023-02-12T08:29:22;102106.75;;;2.19;66.27
15880;BME280;61999;51.514;14.614;2023-02-12T08:31:55;102110.06;;;2.30;66.05
15880;BME280;61999;51.514;14.614;2023-02-12T08:34:27;102110.00;;;2.39;66.23
15880;BME280;61999;51.514;14.614;2023-02-12T08:36:56;102110.88;;;2.35;65.88
15880;BME280;61999;51.514;14.614;2023-02-12T08:39:26;102104.91;;;2.27;66.12
15880;BME280;61999;51.514;14.614;2023-02-12T08:41:56;102108.91;;;2.56;65.66
15880;BME280;61999;51.514;14.614;2023-02-12T08:44:26;102111.53;;;2.53;65.26
15880;BME280;61999;51.514;14.614;2023-02-12T08:46:54;102111.41;;;1.83;66.62
15880;BME280;61999;51.514;14.614;2023-02-12T08:49:24;102112.34;;;1.76;67.46
15880;BME280;61999;51.514;14.614;2023-02-12T08:51:54;102115.56;;;2.06;67.12
15880;BME280;61999;51.514;14.614;2023-02-12T08:54:25;102109.66;;;1.84;67.65
15880;BME280;61999;51.514;14.614;2023-02-12T08:56:55;102115.75;;;1.81;67.62
15880;BME280;61999;51.514;14.614;2023-02-12T08:59:23;102106.22;;;1.86;67.54
15880;BME280;61999;51.514;14.614;2023-02-12T09:01:53;102114.00;;;1.86;67.52
15880;BME280;61999;51.514;14.614;2023-02-12T09:04:24;102115.53;;;2.09;67.24
15880;BME280;61999;51.514;14.614;2023-02-12T09:06:53;102119.44;;;2.47;66.32
15880;BME280;61999;51.514;14.614;2023-02-12T09:09:21;102126.09;;;1.93;67.17
15880;BME280;61999;51.514;14.614;2023-02-12T09:11:49;102131.91;;;2.17;67.28
15880;BME280;61999;51.514;14.614;2023-02-12T09:14:18;102131.22;;;2.00;66.81
15880;BME280;61999;51.514;14.614;2023-02-12T09:16:49;102130.84;;;2.36;66.46
15880;BME280;61999;51.514;14.614;2023-02-12T09:19:20;102130.13;;;2.22;65.45
15880;BME280;61999;51.514;14.614;2023-02-12T09:21:50;102132.47;;;2.44;66.23
15880;BME280;61999;51.514;14.614;2023-02-12T09:24:21;102140.88;;;2.67;65.68
15880;BME280;61999;51.514;14.614;2023-02-12T09:26:49;102134.16;;;2.51;65.08
15880;BME280;61999;51.514;14.614;2023-02-12T09:29:17;102139.34;;;2.51;65.46
15880;BME280;61999;51.514;14.614;2023-02-12T09:31:45;102140.84;;;2.70;65.08
15880;BME280;61999;51.514;14.614;2023-02-12T09:34:13;102141.56;;;2.06;65.74
15880;BME280;61999;51.514;14.614;2023-02-12T09:36:42;102148.38;;;2.16;67.29
15880;BME280;61999;51.514;14.614;2023-02-12T09:39:10;102149.41;;;2.03;66.63
15880;BME280;61999;51.514;14.614;2023-02-12T09:42:18;102154.28;;;1.30;68.83
15880;BME280;61999;51.514;14.614;2023-02-12T09:45:02;102157.56;;;1.57;68.88
15880;BME280;61999;51.514;14.614;2023-02-12T09:47:41;102154.13;;;1.55;68.47
15880;BME280;61999;51.514;14.614;2023-02-12T09:50:29;102150.88;;;1.22;69.85
15880;BME280;61999;51.514;14.614;2023-02-12T09:53:02;102163.03;;;1.17;69.31
15880;BME280;61999;51.514;14.614;2023-02-12T09:55:33;102155.25;;;1.14;71.17
15880;BME280;61999;51.514;14.614;2023-02-12T09:58:11;102165.16;;;1.81;69.13
15880;BME280;61999;51.514;14.614;2023-02-12T10:00:41;102155.19;;;2.29;67.55
15880;BME280;61999;51.514;14.614;2023-02-12T10:03:14;102163.94;;;2.25;66.98
15880;BME280;61999;51.514;14.614;2023-02-12T10:05:48;102164.59;;;1.42;68.73
15880;BME280;61999;51.514;14.614;2023-02-12T10:08:34;102169.09;;;1.17;70.48
15880;BME280;61999;51.514;14.614;2023-02-12T10:11:41;102162.59;;;1.78;69.66
15880;BME280;61999;51.514;14.614;2023-02-12T10:14:28;102161.31;;;1.13;70.16
15880;BME280;61999;51.514;14.614;2023-02-12T10:17:12;102164.38;;;1.70;70.51
15880;BME280;61999;51.514;14.614;2023-02-12T10:23:02;102159.72;;;2.12;67.87
15880;BME280;61999;51.514;14.614;2023-02-12T10:25:46;102168.75;;;1.66;69.41
15880;BME280;61999;51.514;14.614;2023-02-12T10:28:23;102166.66;;;0.88;71.18
15880;BME280;61999;51.514;14.614;2023-02-12T10:30:55;102165.38;;;1.57;70.14
15880;BME280;61999;51.514;14.614;2023-02-12T10:33:31;102166.94;;;1.79;69.73
15880;BME280;61999;51.514;14.614;2023-02-12T10:36:10;102172.34;;;1.52;67.84
15880;BME280;61999;51.514;14.614;2023-02-12T10:38:47;102175.53;;;1.90;67.87
15880;BME280;61999;51.514;14.614;2023-02-12T10:41:18;102165.88;;;2.05;67.66
15880;BME280;61999;51.514;14.614;2023-02-12T10:43:46;102170.41;;;1.75;67.28
15880;BME280;61999;51.514;14.614;2023-02-12T10:46:16;102162.53;;;1.90;68.00
15880;BME280;61999;51.514;14.614;2023-02-12T10:48:48;102162.25;;;2.18;66.92
15880;BME280;61999;51.514;14.614;2023-02-12T10:51:51;102166.56;;;1.05;69.11
15880;BME280;61999;51.514;14.614;2023-02-12T10:54:37;102177.13;;;0.60;71.33
15880;BME280;61999;51.514;14.614;2023-02-12T10:57:13;102165.13;;;0.13;74.78
15880;BME280;61999;51.514;14.614;2023-02-12T10:59:44;102166.84;;;-0.01;76.03
15880;BME280;61999;51.514;14.614;2023-02-12T11:02:26;102160.63;;;0.85;73.82
15880;BME280;61999;51.514;14.614;2023-02-12T11:04:57;102161.63;;;0.39;73.87
15880;BME280;61999;51.514;14.614;2023-02-12T11:07:26;102159.88;;;0.38;75.60
15880;BME280;61999;51.514;14.614;2023-02-12T11:09:56;102148.19;;;1.37;72.35
15880;BME280;61999;51.514;14.614;2023-02-12T11:12:33;102141.16;;;1.52;70.47
15880;BME280;61999;51.514;14.614;2023-02-12T11:15:12;102141.75;;;1.83;69.49
15880;BME280;61999;51.514;14.614;2023-02-12T11:17:44;102140.88;;;1.88;67.99
15880;BME280;61999;51.514;14.614;2023-02-12T11:20:24;102146.75;;;2.09;67.28
15880;BME280;61999;51.514;14.614;2023-02-12T11:22:56;102148.75;;;1.76;67.51
15880;BME280;61999;51.514;14.614;2023-02-12T11:25:30;102137.91;;;1.16;70.13
15880;BME280;61999;51.514;14.614;2023-02-12T11:28:13;102138.16;;;2.01;68.81
15880;BME280;61999;51.514;14.614;2023-02-12T11:30:52;102140.97;;;1.75;68.33
15880;BME280;61999;51.514;14.614;2023-02-12T11:33:28;102147.03;;;1.72;69.55
15880;BME280;61999;51.514;14.614;2023-02-12T11:36:01;102134.81;;;1.86;69.14
15880;BME280;61999;51.514;14.614;2023-02-12T11:38:36;102137.09;;;1.11;69.68
15880;BME280;61999;51.514;14.614;2023-02-12T11:41:23;102139.09;;;0.56;72.43
15880;BME280;61999;51.514;14.614;2023-02-12T11:43:56;102145.94;;;0.73;72.77
15880;BME280;61999;51.514;14.614;2023-02-12T11:46:26;102137.34;;;0.65;73.70
15880;BME280;61999;51.514;14.614;2023-02-12T11:48:56;102139.94;;;0.65;73.23
15880;BME280;61999;51.514;14.614;2023-02-12T11:51:29;102133.94;;;0.41;74.95
15880;BME280;61999;51.514;14.614;2023-02-12T11:54:02;102128.66;;;0.64;74.04
15880;BME280;61999;51.514;14.614;2023-02-12T11:56:41;102128.78;;;0.32;74.39
15880;BME280;61999;51.514;14.614;2023-02-12T11:59:27;102131.22;;;0.72;74.41
15880;BME280;61999;51.514;14.614;2023-02-12T12:02:04;102112.13;;;0.87;72.44
15880;BME280;61999;51.514;14.614;2023-02-12T12:04:34;102128.75;;;0.38;72.56
15880;BME280;61999;51.514;14.614;2023-02-12T12:07:13;102121.81;;;0.43;74.89
15880;BME280;61999;51.514;14.614;2023-02-12T12:09:53;102112.13;;;0.88;73.00
15880;BME280;61999;51.514;14.614;2023-02-12T12:12:30;102117.13;;;1.16;71.44
15880;BME280;61999;51.514;14.614;2023-02-12T12:15:14;102113.38;;;1.57;69.68
15880;BME280;61999;51.514;14.614;2023-02-12T12:18:15;102118.47;;;1.69;68.93
15880;BME280;61999;51.514;14.614;2023-02-12T12:21:12;102109.13;;;1.46;69.12
15880;BME280;61999;51.514;14.614;2023-02-12T12:23:50;102117.78;;;1.48;69.92
15880;BME280;61999;51.514;14.614;2023-02-12T12:26:25;102110.53;;;1.87;68.15
15880;BME280;61999;51.514;14.614;2023-02-12T12:29:02;102101.97;;;2.56;67.22
15880;BME280;61999;51.514;14.614;2023-02-12T12:31:38;102095.03;;;3.17;65.60
15880;BME280;61999;51.514;14.614;2023-02-12T12:34:11;102089.88;;;3.14;64.97
15880;BME280;61999;51.514;14.614;2023-02-12T12:37:02;102090.19;;;2.26;65.49
15880;BME280;61999;51.514;14.614;2023-02-12T12:39:41;102089.03;;;2.49;65.46
15880;BME280;61999;51.514;14.614;2023-02-12T12:42:47;102089.94;;;3.11;64.25
15880;BME280;61999;51.514;14.614;2023-02-12T12:45:34;102087.16;;;3.74;63.41
15880;BME280;61999;51.514;14.614;2023-02-12T12:48:23;102084.41;;;3.33;62.79
15880;BME280;61999;51.514;14.614;2023-02-12T12:51:17;102074.97;;;3.77;61.63
15880;BME280;61999;51.514;14.614;2023-02-12T12:54:06;102087.69;;;3.44;60.63
15880;BME280;61999;51.514;14.614;2023-02-12T12:56:49;102083.22;;;1.37;65.49
15880;BME280;61999;51.514;14.614;2023-02-12T12:59:40;102086.63;;;1.45;66.34
15880;BME280;61999;51.514;14.614;2023-02-12T13:03:00;102083.63;;;1.91;65.77
15880;BME280;61999;51.514;14.614;2023-02-12T13:06:17;102081.06;;;2.61;63.05
15880;BME280;61999;51.514;14.614;2023-02-12T13:09:13;102090.63;;;1.80;63.55
15880;BME280;61999;51.514;14.614;2023-02-12T13:12:06;102082.06;;;1.67;65.92
15880;BME280;61999;51.514;14.614;2023-02-12T13:14:45;102074.31;;;1.66;65.04
15880;BME280;61999;51.514;14.614;2023-02-12T13:17:24;102079.66;;;1.50;65.66
15880;BME280;61999;51.514;14.614;2023-02-12T13:20:04;102075.38;;;2.30;63.91
15880;BME280;61999;51.514;14.614;2023-02-12T13:22:43;102082.88;;;1.77;65.25
15880;BME280;61999;51.514;14.614;2023-02-12T13:25:22;102082.63;;;2.02;64.99
15880;BME280;61999;51.514;14.614;2023-02-12T13:27:59;102080.13;;;2.68;63.79
15880;BME280;61999;51.514;14.614;2023-02-12T13:30:35;102084.81;;;3.05;62.85
15880;BME280;61999;51.514;14.614;2023-02-12T13:33:10;102091.34;;;3.34;61.36